sensor_id;sensor_type;location;lat;lon;timestamp;pressure;altitude;pressure_sealevel;temperature;humidity
60611;BME280;46439;51.164;13.572;2022-10-16T00:01:30;99794.30;;;16.49;88.79
60611;BME280;46439;51.164;13.572;2022-10-16T00:03:59;99792.89;;;16.48;88.80
60611;BME280;46439;51.164;13.572;2022-10-16T00:06:28;99792.72;;;16.47;88.83
60611;BME280;46439;51.164;13.572;2022-10-16T00:08:57;99796.73;;;16.44;88.79
60611;BME280;46439;51.164;13.572;2022-10-16T00:11:27;99791.90;;;16.39;88.71
60611;BME280;46439;51.164;13.572;2022-10-16T00:13:59;99795.18;;;16.31;88.38
60611;BME280;46439;51.164;13.572;2022-10-16T00:16:28;99801.64;;;16.25;88.31
60611;BME280;46439;51.164;13.572;2022-10-16T00:18:57;99804.85;;;16.21;88.22
60611;BME280;46439;51.164;13.572;2022-10-16T00:21:27;99805.80;;;16.17;88.27
60611;BME280;46439;51.164;13.572;2022-10-16T00:23:57;99805.90;;;16.07;88.03
60611;BME280;46439;51.164;13.572;2022-10-16T00:26:28;99807.48;;;15.92;87.73
60611;BME280;46439;51.164;13.572;2022-10-16T00:28:57;99809.71;;;15.81;87.43
60611;BME280;46439;51.164;13.572;2022-10-16T00:31:26;99814.67;;;15.73;87.34
60611;BME280;46439;51.164;13.572;2022-10-16T00:33:54;99818.20;;;15.70;87.40
60611;BME280;46439;51.164;13.572;2022-10-16T00:36:25;99815.52;;;15.68;87.54
60611;BME280;46439;51.164;13.572;2022-10-16T00:38:55;99813.09;;;15.70;87.80
60611;BME280;46439;51.164;13.572;2022-10-16T00:41:27;99815.98;;;15.74;88.08
60611;BME280;46439;51.164;13.572;2022-10-16T00:43:57;99822.55;;;15.78;88.34
60611;BME280;46439;51.164;13.572;2022-10-16T00:46:27;99827.15;;;15.80;88.37
60611;BME280;46439;51.164;13.572;2022-10-16T00:48:59;99827.73;;;15.81;88.48
60611;BME280;46439;51.164;13.572;2022-10-16T00:51:32;99826.60;;;15.83;88.55
60611;BME280;46439;51.164;13.572;2022-10-16T00:54:02;99828.39;;;15.81;88.53
60611;BME280;46439;51.164;13.572;2022-10-16T00:56:33;99828.89;;;15.83;88.52
60611;BME280;46439;51.164;13.572;2022-10-16T00:59:03;99825.23;;;15.86;88.73
60611;BME280;46439;51.164;13.572;2022-10-16T01:01:32;99823.81;;;15.85;88.74
60611;BME280;46439;51.164;13.572;2022-10-16T01:04:01;99825.92;;;15.88;88.77
60611;BME280;46439;51.164;13.572;2022-10-16T01:06:36;99827.21;;;15.92;89.00
60611;BME280;46439;51.164;13.572;2022-10-16T01:09:16;99825.80;;;15.97;89.20
60611;BME280;46439;51.164;13.572;2022-10-16T01:11:52;99825.79;;;16.01;89.35
60611;BME280;46439;51.164;13.572;2022-10-16T01:14:34;99829.45;;;16.04;89.44
60611;BME280;46439;51.164;13.572;2022-10-16T01:17:08;99831.13;;;16.07;89.43
60611;BME280;46439;51.164;13.572;2022-10-16T01:19:57;99830.21;;;16.11;89.51
60611;BME280;46439;51.164;13.572;2022-10-16T01:22:37;99827.73;;;16.14;89.54
60611;BME280;46439;51.164;13.572;2022-10-16T01:25:11;99823.64;;;16.17;89.64
60611;BME280;46439;51.164;13.572;2022-10-16T01:27:44;99831.77;;;16.19;89.66
60611;BME280;46439;51.164;13.572;2022-10-16T01:30:18;99833.30;;;16.20;89.66
60611;BME280;46439;51.164;13.572;2022-10-16T01:32:52;99836.81;;;16.22;89.60
60611;BME280;46439;51.164;13.572;2022-10-16T01:35:25;99840.45;;;16.24;89.73
60611;BME280;46439;51.164;13.572;2022-10-16T01:37:53;99841.28;;;16.26;89.75
60611;BME280;46439;51.164;13.572;2022-10-16T01:40:26;99832.67;;;16.28;89.81
60611;BME280;46439;51.164;13.572;2022-10-16T01:42:59;99832.64;;;16.27;89.85
60611;BME280;46439;51.164;13.572;2022-10-16T01:45:30;99826.86;;;16.27;89.84
60611;BME280;46439;51.164;13.572;2022-10-16T01:48:01;99824.02;;;16.25;89.73
60611;BME280;46439;51.164;13.572;2022-10-16T01:50:35;99823.08;;;16.26;89.75
60611;BME280;46439;51.164;13.572;2022-10-16T01:53:05;99820.06;;;16.27;89.83
60611;BME280;46439;51.164;13.572;2022-10-16T01:55:39;99825.83;;;16.26;89.77
60611;BME280;46439;51.164;13.572;2022-10-16T01:58:13;99830.62;;;16.28;89.81
60611;BME280;46439;51.164;13.572;2022-10-16T02:00:43;99828.46;;;16.30;89.81
60611;BME280;46439;51.164;13.572;2022-10-16T02:03:16;99832.67;;;16.33;89.88
60611;BME280;46439;51.164;13.572;2022-10-16T02:05:49;99834.23;;;16.37;89.92
60611;BME280;46439;51.164;13.572;2022-10-16T02:08:19;99839.42;;;16.41;90.04
60611;BME280;46439;51.164;13.572;2022-10-16T02:10:48;99840.61;;;16.45;90.08
60611;BME280;46439;51.164;13.572;2022-10-16T02:13:19;99847.46;;;16.48;90.20
60611;BME280;46439;51.164;13.572;2022-10-16T02:15:50;99851.20;;;16.48;90.08
60611;BME280;46439;51.164;13.572;2022-10-16T02:18:19;99851.71;;;16.47;90.02
60611;BME280;46439;51.164;13.572;2022-10-16T02:20:53;99846.92;;;16.48;89.95
60611;BME280;46439;51.164;13.572;2022-10-16T02:23:27;99848.04;;;16.50;89.92
60611;BME280;46439;51.164;13.572;2022-10-16T02:26:00;99847.92;;;16.53;89.97
60611;BME280;46439;51.164;13.572;2022-10-16T02:28:37;99846.55;;;16.54;90.16
60611;BME280;46439;51.164;13.572;2022-10-16T02:31:11;99838.87;;;16.55;89.97
60611;BME280;46439;51.164;13.572;2022-10-16T02:33:42;99837.17;;;16.55;90.09
60611;BME280;46439;51.164;13.572;2022-10-16T02:36:11;99839.83;;;16.54;90.01
60611;BME280;46439;51.164;13.572;2022-10-16T02:38:41;99839.80;;;16.51;89.89
60611;BME280;46439;51.164;13.572;2022-10-16T02:41:09;99844.04;;;16.51;89.83
60611;BME280;46439;51.164;13.572;2022-10-16T02:43:38;99842.61;;;16.52;89.86
60611;BME280;46439;51.164;13.572;2022-10-16T02:46:06;99845.02;;;16.55;89.96
60611;BME280;46439;51.164;13.572;2022-10-16T02:48:35;99843.78;;;16.57;89.90
60611;BME280;46439;51.164;13.572;2022-10-16T02:51:04;99842.27;;;16.57;89.93
60611;BME280;46439;51.164;13.572;2022-10-16T02:53:33;99840.23;;;16.58;90.01
60611;BME280;46439;51.164;13.572;2022-10-16T02:56:01;99834.60;;;16.59;90.08
60611;BME280;46439;51.164;13.572;2022-10-16T02:58:29;99826.88;;;16.58;89.96
60611;BME280;46439;51.164;13.572;2022-10-16T03:00:57;99826.16;;;16.61;90.06
60611;BME280;46439;51.164;13.572;2022-10-16T03:03:26;99829.58;;;16.64;90.08
60611;BME280;46439;51.164;13.572;2022-10-16T03:05:54;99833.98;;;16.67;90.14
60611;BME280;46439;51.164;13.572;2022-10-16T03:08:22;99841.60;;;16.70;90.28
60611;BME280;46439;51.164;13.572;2022-10-16T03:10:53;99842.88;;;16.73;90.32
60611;BME280;46439;51.164;13.572;2022-10-16T03:13:21;99848.64;;;16.76;90.33
60611;BME280;46439;51.164;13.572;2022-10-16T03:15:49;99856.58;;;16.81;90.50
60611;BME280;46439;51.164;13.572;2022-10-16T03:18:17;99858.67;;;16.84;90.47
60611;BME280;46439;51.164;13.572;2022-10-16T03:20:46;99856.96;;;16.88;90.60
60611;BME280;46439;51.164;13.572;2022-10-16T03:23:14;99850.10;;;16.91;90.59
60611;BME280;46439;51.164;13.572;2022-10-16T03:25:42;99855.09;;;16.95;90.63
60611;BME280;46439;51.164;13.572;2022-10-16T03:28:11;99860.08;;;16.95;90.70
60611;BME280;46439;51.164;13.572;2022-10-16T03:30:39;99867.32;;;16.93;90.59
60611;BME280;46439;51.164;13.572;2022-10-16T03:33:08;99863.14;;;16.92;90.35
60611;BME280;46439;51.164;13.572;2022-10-16T03:35:36;99861.64;;;16.89;90.39
60611;BME280;46439;51.164;13.572;2022-10-16T03:38:04;99863.77;;;16.87;90.28
60611;BME280;46439;51.164;13.572;2022-10-16T03:40:32;99861.25;;;16.86;90.17
60611;BME280;46439;51.164;13.572;2022-10-16T03:43:01;99864.67;;;16.89;90.52
60611;BME280;46439;51.164;13.572;2022-10-16T03:45:29;99861.27;;;16.90;90.59
60611;BME280;46439;51.164;13.572;2022-10-16T03:47:57;99867.13;;;16.91;90.54
60611;BME280;46439;51.164;13.572;2022-10-16T03:50:26;99871.94;;;16.89;90.56
60611;BME280;46439;51.164;13.572;2022-10-16T03:52:54;99871.31;;;16.87;90.47
60611;BME280;46439;51.164;13.572;2022-10-16T03:55:22;99872.22;;;16.84;90.45
60611;BME280;46439;51.164;13.572;2022-10-16T03:57:50;99875.38;;;16.82;90.39
60611;BME280;46439;51.164;13.572;2022-10-16T04:00:19;99879.86;;;16.79;90.22
60611;BME280;46439;51.164;13.572;2022-10-16T04:02:47;99883.23;;;16.76;90.28
60611;BME280;46439;51.164;13.572;2022-10-16T04:05:16;99882.71;;;16.73;90.14
60611;BME280;46439;51.164;13.572;2022-10-16T04:07:44;99889.06;;;16.69;90.10
60611;BME280;46439;51.164;13.572;2022-10-16T04:10:12;99892.77;;;16.70;90.30
60611;BME280;46439;51.164;13.572;2022-10-16T04:12:40;99897.92;;;16.73;90.41
60611;BME280;46439;51.164;13.572;2022-10-16T04:15:10;99901.98;;;16.76;90.44
60611;BME280;46439;51.164;13.572;2022-10-16T04:17:38;99907.13;;;16.78;90.50
60611;BME280;46439;51.164;13.572;2022-10-16T04:20:08;99905.10;;;16.79;90.55
60611;BME280;46439;51.164;13.572;2022-10-16T04:22:36;99910.04;;;16.82;90.58
60611;BME280;46439;51.164;13.572;2022-10-16T04:25:05;99909.02;;;16.82;90.67
60611;BME280;46439;51.164;13.572;2022-10-16T04:27:34;99905.55;;;16.83;90.64
60611;BME280;46439;51.164;13.572;2022-10-16T04:30:02;99906.06;;;16.80;90.52
60611;BME280;46439;51.164;13.572;2022-10-16T04:32:31;99912.72;;;16.77;90.50
60611;BME280;46439;51.164;13.572;2022-10-16T04:34:59;99917.03;;;16.72;90.32
60611;BME280;46439;51.164;13.572;2022-10-16T04:37:28;99921.63;;;16.73;90.27
60611;BME280;46439;51.164;13.572;2022-10-16T04:39:56;99915.16;;;16.73;90.43
60611;BME280;46439;51.164;13.572;2022-10-16T04:42:24;99910.70;;;16.63;90.14
60611;BME280;46439;51.164;13.572;2022-10-16T04:44:53;99911.40;;;16.53;89.85
60611;BME280;46439;51.164;13.572;2022-10-16T04:47:21;99904.29;;;16.50;89.87
60611;BME280;46439;51.164;13.572;2022-10-16T04:49:49;99902.48;;;16.49;90.05
60611;BME280;46439;51.164;13.572;2022-10-16T04:52:34;99906.79;;;16.47;90.21
60611;BME280;46439;51.164;13.572;2022-10-16T04:55:03;99909.29;;;16.50;90.34
60611;BME280;46439;51.164;13.572;2022-10-16T04:57:32;99909.89;;;16.53;90.59
60611;BME280;46439;51.164;13.572;2022-10-16T05:00:01;99920.23;;;16.56;90.76
60611;BME280;46439;51.164;13.572;2022-10-16T05:02:31;99917.16;;;16.57;90.87
60611;BME280;46439;51.164;13.572;2022-10-16T05:04:59;99919.05;;;16.55;90.74
60611;BME280;46439;51.164;13.572;2022-10-16T05:07:27;99914.75;;;16.46;90.45
60611;BME280;46439;51.164;13.572;2022-10-16T05:09:55;99910.81;;;16.39;90.14
60611;BME280;46439;51.164;13.572;2022-10-16T05:12:24;99916.29;;;16.40;90.19
60611;BME280;46439;51.164;13.572;2022-10-16T05:14:52;99922.80;;;16.38;90.36
60611;BME280;46439;51.164;13.572;2022-10-16T05:17:20;99929.05;;;16.39;90.38
60611;BME280;46439;51.164;13.572;2022-10-16T05:19:49;99941.52;;;16.40;90.45
60611;BME280;46439;51.164;13.572;2022-10-16T05:22:17;99949.28;;;16.42;90.61
60611;BME280;46439;51.164;13.572;2022-10-16T05:24:45;99942.15;;;16.40;90.44
60611;BME280;46439;51.164;13.572;2022-10-16T05:27:13;99937.35;;;16.38;90.38
60611;BME280;46439;51.164;13.572;2022-10-16T05:29:47;99936.70;;;16.33;90.27
60611;BME280;46439;51.164;13.572;2022-10-16T05:32:17;99930.88;;;16.32;90.20
60611;BME280;46439;51.164;13.572;2022-10-16T05:34:46;99930.95;;;16.34;90.43
60611;BME280;46439;51.164;13.572;2022-10-16T05:37:15;99930.73;;;16.37;90.58
60611;BME280;46439;51.164;13.572;2022-10-16T05:39:43;99925.95;;;16.38;90.68
60611;BME280;46439;51.164;13.572;2022-10-16T05:42:11;99933.88;;;16.38;90.66
60611;BME280;46439;51.164;13.572;2022-10-16T05:44:40;99943.04;;;16.40;90.77
60611;BME280;46439;51.164;13.572;2022-10-16T05:47:08;99950.33;;;16.43;90.92
60611;BME280;46439;51.164;13.572;2022-10-16T05:49:36;99959.45;;;16.43;90.86
60611;BME280;46439;51.164;13.572;2022-10-16T05:52:05;99963.19;;;16.44;90.98
60611;BME280;46439;51.164;13.572;2022-10-16T05:54:33;99963.84;;;16.45;90.97
60611;BME280;46439;51.164;13.572;2022-10-16T05:57:01;99961.36;;;16.48;91.16
60611;BME280;46439;51.164;13.572;2022-10-16T05:59:30;99960.40;;;16.48;91.09
60611;BME280;46439;51.164;13.572;2022-10-16T06:01:58;99958.46;;;16.49;91.06
60611;BME280;46439;51.164;13.572;2022-10-16T06:04:26;99961.80;;;16.50;91.18
60611;BME280;46439;51.164;13.572;2022-10-16T06:06:57;99962.65;;;16.49;90.98
60611;BME280;46439;51.164;13.572;2022-10-16T06:09:28;99965.36;;;16.50;91.17
60611;BME280;46439;51.164;13.572;2022-10-16T06:11:56;99967.94;;;16.48;91.06
60611;BME280;46439;51.164;13.572;2022-10-16T06:14:25;99980.39;;;16.47;90.96
60611;BME280;46439;51.164;13.572;2022-10-16T06:16:54;99986.00;;;16.48;91.00
60611;BME280;46439;51.164;13.572;2022-10-16T06:19:22;99988.18;;;16.47;90.99
60611;BME280;46439;51.164;13.572;2022-10-16T06:21:50;99997.08;;;16.47;91.00
60611;BME280;46439;51.164;13.572;2022-10-16T06:24:19;100000.92;;;16.49;90.94
60611;BME280;46439;51.164;13.572;2022-10-16T06:26:47;99999.61;;;16.54;91.14
60611;BME280;46439;51.164;13.572;2022-10-16T06:29:15;99996.45;;;16.58;91.16
60611;BME280;46439;51.164;13.572;2022-10-16T06:31:43;99997.77;;;16.60;91.30
60611;BME280;46439;51.164;13.572;2022-10-16T06:34:12;99999.02;;;16.64;91.42
60611;BME280;46439;51.164;13.572;2022-10-16T06:36:40;99997.45;;;16.65;91.33
60611;BME280;46439;51.164;13.572;2022-10-16T06:39:09;100001.80;;;16.65;91.30
60611;BME280;46439;51.164;13.572;2022-10-16T06:41:37;100002.64;;;16.68;91.35
60611;BME280;46439;51.164;13.572;2022-10-16T06:44:08;100008.20;;;16.71;91.48
60611;BME280;46439;51.164;13.572;2022-10-16T06:46:36;100011.66;;;16.74;91.46
60611;BME280;46439;51.164;13.572;2022-10-16T06:49:04;100016.52;;;16.77;91.54
60611;BME280;46439;51.164;13.572;2022-10-16T06:51:33;100018.23;;;16.78;91.39
60611;BME280;46439;51.164;13.572;2022-10-16T06:54:03;100020.92;;;16.78;91.38
60611;BME280;46439;51.164;13.572;2022-10-16T06:56:32;100021.36;;;16.80;91.46
60611;BME280;46439;51.164;13.572;2022-10-16T06:59:02;100025.42;;;16.82;91.50
60611;BME280;46439;51.164;13.572;2022-10-16T07:01:31;100029.09;;;16.84;91.47
60611;BME280;46439;51.164;13.572;2022-10-16T07:03:59;100038.20;;;16.88;91.70
60611;BME280;46439;51.164;13.572;2022-10-16T07:06:30;100042.25;;;16.93;91.71
60611;BME280;46439;51.164;13.572;2022-10-16T07:09:00;100041.35;;;16.97;91.68
60611;BME280;46439;51.164;13.572;2022-10-16T07:11:29;100044.02;;;17.00;91.74
60611;BME280;46439;51.164;13.572;2022-10-16T07:13:57;100048.56;;;17.03;91.76
60611;BME280;46439;51.164;13.572;2022-10-16T07:16:27;100048.96;;;17.08;91.83
60611;BME280;46439;51.164;13.572;2022-10-16T07:18:57;100058.38;;;17.12;91.88
60611;BME280;46439;51.164;13.572;2022-10-16T07:21:28;100064.83;;;17.14;91.85
60611;BME280;46439;51.164;13.572;2022-10-16T07:23:58;100068.92;;;17.18;91.85
60611;BME280;46439;51.164;13.572;2022-10-16T07:26:28;100072.96;;;17.21;91.90
60611;BME280;46439;51.164;13.572;2022-10-16T07:28:58;100076.72;;;17.25;91.90
60611;BME280;46439;51.164;13.572;2022-10-16T07:31:27;100073.70;;;17.30;91.77
60611;BME280;46439;51.164;13.572;2022-10-16T07:33:57;100076.84;;;17.32;91.83
60611;BME280;46439;51.164;13.572;2022-10-16T07:36:26;100078.42;;;17.34;91.79
60611;BME280;46439;51.164;13.572;2022-10-16T07:38:54;100082.70;;;17.39;91.84
60611;BME280;46439;51.164;13.572;2022-10-16T07:41:22;100083.48;;;17.48;91.92
60611;BME280;46439;51.164;13.572;2022-10-16T07:43:52;100088.32;;;17.54;92.06
60611;BME280;46439;51.164;13.572;2022-10-16T07:46:22;100089.02;;;17.58;92.06
60611;BME280;46439;51.164;13.572;2022-10-16T07:48:50;100092.17;;;17.61;92.00
60611;BME280;46439;51.164;13.572;2022-10-16T07:51:21;100089.59;;;17.64;91.85
60611;BME280;46439;51.164;13.572;2022-10-16T07:53:49;100093.57;;;17.66;91.87
60611;BME280;46439;51.164;13.572;2022-10-16T07:56:19;100092.80;;;17.72;91.95
60611;BME280;46439;51.164;13.572;2022-10-16T07:58:47;100089.45;;;17.80;92.02
60611;BME280;46439;51.164;13.572;2022-10-16T08:01:18;100091.23;;;17.89;92.20
60611;BME280;46439;51.164;13.572;2022-10-16T08:03:48;100085.79;;;17.95;92.40
60611;BME280;46439;51.164;13.572;2022-10-16T08:06:18;100092.35;;;17.99;92.38
60611;BME280;46439;51.164;13.572;2022-10-16T08:08:47;100096.34;;;18.02;92.39
60611;BME280;46439;51.164;13.572;2022-10-16T08:11:16;100095.56;;;18.11;92.56
60611;BME280;46439;51.164;13.572;2022-10-16T08:13:44;100089.30;;;18.16;92.59
60611;BME280;46439;51.164;13.572;2022-10-16T08:16:12;100104.45;;;18.17;92.54
60611;BME280;46439;51.164;13.572;2022-10-16T08:18:42;100110.59;;;18.21;92.41
60611;BME280;46439;51.164;13.572;2022-10-16T08:21:14;100102.66;;;18.24;92.33
60611;BME280;46439;51.164;13.572;2022-10-16T08:23:42;100096.70;;;18.28;92.27
60611;BME280;46439;51.164;13.572;2022-10-16T08:26:12;100092.35;;;18.33;92.29
60611;BME280;46439;51.164;13.572;2022-10-16T08:28:41;100093.41;;;18.36;92.37
60611;BME280;46439;51.164;13.572;2022-10-16T08:31:12;100093.89;;;18.38;92.28
60611;BME280;46439;51.164;13.572;2022-10-16T08:33:43;100095.89;;;18.40;92.27
60611;BME280;46439;51.164;13.572;2022-10-16T08:36:13;100096.32;;;18.44;92.12
60611;BME280;46439;51.164;13.572;2022-10-16T08:38:42;100103.55;;;18.48;92.13
60611;BME280;46439;51.164;13.572;2022-10-16T08:41:23;100104.10;;;18.54;92.31
60611;BME280;46439;51.164;13.572;2022-10-16T08:44:22;100101.96;;;18.61;92.53
60611;BME280;46439;51.164;13.572;2022-10-16T08:46:58;100100.34;;;18.67;92.51
60611;BME280;46439;51.164;13.572;2022-10-16T08:49:29;100104.61;;;18.73;92.55
60611;BME280;46439;51.164;13.572;2022-10-16T08:51:58;100105.45;;;18.79;92.65
60611;BME280;46439;51.164;13.572;2022-10-16T08:54:31;100106.53;;;18.84;92.64
60611;BME280;46439;51.164;13.572;2022-10-16T08:57:09;100110.30;;;18.85;92.55
60611;BME280;46439;51.164;13.572;2022-10-16T08:59:39;100107.71;;;18.89;92.48
60611;BME280;46439;51.164;13.572;2022-10-16T09:02:24;100106.23;;;18.94;92.44
60611;BME280;46439;51.164;13.572;2022-10-16T09:05:01;100110.85;;;19.01;92.62
60611;BME280;46439;51.164;13.572;2022-10-16T09:07:35;100110.96;;;19.11;92.84
60611;BME280;46439;51.164;13.572;2022-10-16T09:10:21;100109.97;;;19.20;93.03
60611;BME280;46439;51.164;13.572;2022-10-16T09:12:58;100107.65;;;19.32;93.15
60611;BME280;46439;51.164;13.572;2022-10-16T09:15:34;100114.50;;;19.45;93.34
60611;BME280;46439;51.164;13.572;2022-10-16T09:18:10;100129.16;;;19.56;93.56
60611;BME280;46439;51.164;13.572;2022-10-16T09:20:51;100134.38;;;19.68;93.62
60611;BME280;46439;51.164;13.572;2022-10-16T09:23:22;100132.11;;;19.76;93.62
60611;BME280;46439;51.164;13.572;2022-10-16T09:25:54;100132.72;;;19.84;93.46
60611;BME280;46439;51.164;13.572;2022-10-16T09:28:23;100128.91;;;19.91;93.62
60611;BME280;46439;51.164;13.572;2022-10-16T09:30:52;100131.96;;;19.99;93.56
60611;BME280;46439;51.164;13.572;2022-10-16T09:33:23;100137.98;;;20.07;93.62
60611;BME280;46439;51.164;13.572;2022-10-16T09:35:55;100139.87;;;20.15;93.62
60611;BME280;46439;51.164;13.572;2022-10-16T09:38:29;100141.41;;;20.23;93.65
60611;BME280;46439;51.164;13.572;2022-10-16T09:40:59;100141.04;;;20.30;93.62
60611;BME280;46439;51.164;13.572;2022-10-16T09:43:34;100140.16;;;20.37;93.59
60611;BME280;46439;51.164;13.572;2022-10-16T09:46:06;100140.20;;;20.44;93.62
60611;BME280;46439;51.164;13.572;2022-10-16T09:48:39;100149.96;;;20.52;93.49
60611;BME280;46439;51.164;13.572;2022-10-16T09:51:18;100156.48;;;20.58;93.60
60611;BME280;46439;51.164;13.572;2022-10-16T09:53:48;100147.24;;;20.64;93.65
60611;BME280;46439;51.164;13.572;2022-10-16T09:56:25;100147.55;;;20.67;93.59
60611;BME280;46439;51.164;13.572;2022-10-16T09:58:55;100149.17;;;20.71;93.46
60611;BME280;46439;51.164;13.572;2022-10-16T10:01:26;100157.92;;;20.76;93.59
60611;BME280;46439;51.164;13.572;2022-10-16T10:03:58;100154.20;;;20.81;93.46
60611;BME280;46439;51.164;13.572;2022-10-16T10:06:30;100158.33;;;20.86;93.47
60611;BME280;46439;51.164;13.572;2022-10-16T10:09:02;100157.04;;;20.93;93.52
60611;BME280;46439;51.164;13.572;2022-10-16T10:11:46;100158.96;;;21.01;93.65
60611;BME280;46439;51.164;13.572;2022-10-16T10:14:20;100157.40;;;21.08;93.70
60611;BME280;46439;51.164;13.572;2022-10-16T10:16:50;100159.89;;;21.14;93.55
60611;BME280;46439;51.164;13.572;2022-10-16T10:19:21;100160.31;;;21.19;93.46
60611;BME280;46439;51.164;13.572;2022-10-16T10:21:50;100163.24;;;21.26;93.50
60611;BME280;46439;51.164;13.572;2022-10-16T10:24:20;100166.14;;;21.37;93.68
60611;BME280;46439;51.164;13.572;2022-10-16T10:26:57;100173.46;;;21.45;93.67
60611;BME280;46439;51.164;13.572;2022-10-16T10:29:38;100171.89;;;21.51;93.63
60611;BME280;46439;51.164;13.572;2022-10-16T10:32:18;100172.96;;;21.58;93.70
60611;BME280;46439;51.164;13.572;2022-10-16T10:35:04;100175.08;;;21.60;93.52
60611;BME280;46439;51.164;13.572;2022-10-16T10:37:53;100175.73;;;21.62;93.32
60611;BME280;46439;51.164;13.572;2022-10-16T10:40:33;100170.33;;;21.64;93.22
60611;BME280;46439;51.164;13.572;2022-10-16T10:43:14;100174.15;;;21.66;93.07
60611;BME280;46439;51.164;13.572;2022-10-16T10:45:49;100180.60;;;21.70;93.09
60611;BME280;46439;51.164;13.572;2022-10-16T10:48:27;100182.33;;;21.75;93.38
60611;BME280;46439;51.164;13.572;2022-10-16T10:51:04;100187.34;;;21.82;93.30
60611;BME280;46439;51.164;13.572;2022-10-16T10:53:42;100190.64;;;21.85;93.28
60611;BME280;46439;51.164;13.572;2022-10-16T10:56:25;100192.65;;;21.90;93.20
60611;BME280;46439;51.164;13.572;2022-10-16T10:59:39;100190.17;;;21.96;93.31
60611;BME280;46439;51.164;13.572;2022-10-16T11:02:17;100187.73;;;22.02;93.28
60611;BME280;46439;51.164;13.572;2022-10-16T11:07:49;100187.99;;;22.13;93.27
60611;BME280;46439;51.164;13.572;2022-10-16T11:10:23;100183.23;;;22.17;93.34
60611;BME280;46439;51.164;13.572;2022-10-16T11:12:55;100180.16;;;22.18;93.14
60611;BME280;46439;51.164;13.572;2022-10-16T11:15:31;100179.13;;;22.17;92.83
60611;BME280;46439;51.164;13.572;2022-10-16T11:18:06;100176.86;;;22.15;92.84
60611;BME280;46439;51.164;13.572;2022-10-16T11:20:42;100177.36;;;22.12;92.78
60611;BME280;46439;51.164;13.572;2022-10-16T11:23:16;100178.13;;;22.11;92.63
60611;BME280;46439;51.164;13.572;2022-10-16T11:25:46;100181.39;;;22.13;92.54
60611;BME280;46439;51.164;13.572;2022-10-16T11:28:18;100181.36;;;22.14;92.53
60611;BME280;46439;51.164;13.572;2022-10-16T11:30:50;100186.08;;;22.17;92.34
60611;BME280;46439;51.164;13.572;2022-10-16T11:33:27;100185.73;;;22.20;92.49
60611;BME280;46439;51.164;13.572;2022-10-16T11:36:03;100187.52;;;22.21;92.42
60611;BME280;46439;51.164;13.572;2022-10-16T11:38:37;100195.14;;;22.25;92.61
60611;BME280;46439;51.164;13.572;2022-10-16T11:41:15;100201.91;;;22.32;92.57
60611;BME280;46439;51.164;13.572;2022-10-16T11:43:55;100206.25;;;22.41;92.62
60611;BME280;46439;51.164;13.572;2022-10-16T11:46:27;100200.79;;;22.52;92.64
60611;BME280;46439;51.164;13.572;2022-10-16T11:49:02;100203.95;;;22.60;92.87
60611;BME280;46439;51.164;13.572;2022-10-16T11:51:38;100210.41;;;22.65;92.78
60611;BME280;46439;51.164;13.572;2022-10-16T11:54:17;100218.02;;;22.66;92.55
60611;BME280;46439;51.164;13.572;2022-10-16T11:56:52;100217.15;;;22.68;92.41
60611;BME280;46439;51.164;13.572;2022-10-16T11:59:26;100217.55;;;22.72;92.35
60611;BME280;46439;51.164;13.572;2022-10-16T12:02:04;100214.98;;;22.77;92.45
60611;BME280;46439;51.164;13.572;2022-10-16T12:04:43;100214.36;;;22.80;92.28
60611;BME280;46439;51.164;13.572;2022-10-16T12:07:17;100212.75;;;22.82;92.25
60611;BME280;46439;51.164;13.572;2022-10-16T12:09:47;100209.94;;;22.83;92.26
60611;BME280;46439;51.164;13.572;2022-10-16T12:12:38;100204.75;;;22.81;92.16
60611;BME280;46439;51.164;13.572;2022-10-16T12:15:21;100210.98;;;22.82;91.95
60611;BME280;46439;51.164;13.572;2022-10-16T12:17:50;100210.20;;;22.82;91.91
60611;BME280;46439;51.164;13.572;2022-10-16T12:23:21;100216.92;;;22.82;91.75
60611;BME280;46439;51.164;13.572;2022-10-16T12:25:57;100219.60;;;22.77;91.60
60611;BME280;46439;51.164;13.572;2022-10-16T12:28:29;100214.07;;;22.76;91.53
60611;BME280;46439;51.164;13.572;2022-10-16T12:31:01;100216.96;;;22.74;91.47
60611;BME280;46439;51.164;13.572;2022-10-16T12:33:31;100217.52;;;22.74;91.47
60611;BME280;46439;51.164;13.572;2022-10-16T12:36:02;100223.25;;;22.74;91.37
60611;BME280;46439;51.164;13.572;2022-10-16T12:38:36;100223.24;;;22.74;91.32
60611;BME280;46439;51.164;13.572;2022-10-16T12:41:08;100226.48;;;22.73;91.35
60611;BME280;46439;51.164;13.572;2022-10-16T12:43:42;100229.23;;;22.74;91.37
60611;BME280;46439;51.164;13.572;2022-10-16T12:46:33;100228.12;;;22.73;91.34
60611;BME280;46439;51.164;13.572;2022-10-16T12:49:21;100230.90;;;22.75;91.25
60611;BME280;46439;51.164;13.572;2022-10-16T12:51:49;100231.57;;;22.75;91.19
60611;BME280;46439;51.164;13.572;2022-10-16T12:54:19;100234.34;;;22.76;91.25
60611;BME280;46439;51.164;13.572;2022-10-16T12:57:02;100233.56;;;22.76;91.21
60611;BME280;46439;51.164;13.572;2022-10-16T12:59:38;100237.07;;;22.74;91.15
60611;BME280;46439;51.164;13.572;2022-10-16T13:02:24;100240.95;;;22.73;91.00
60611;BME280;46439;51.164;13.572;2022-10-16T13:05:16;100241.87;;;22.72;90.81
60611;BME280;46439;51.164;13.572;2022-10-16T13:07:55;100244.77;;;22.71;90.87
60611;BME280;46439;51.164;13.572;2022-10-16T13:10:31;100243.67;;;22.74;90.96
60611;BME280;46439;51.164;13.572;2022-10-16T13:13:18;100242.79;;;22.74;91.02
60611;BME280;46439;51.164;13.572;2022-10-16T13:16:01;100249.23;;;22.70;90.69